Time;durP1;ratioP1;P1;durP2;ratioP2;P2;SDS_P1;SDS_P2;PMS_P1;PMS_P2;Temp;Humidity;BMP_temperature;BMP_pressure;BME280_temperature;BME280_humidity;BME280_pressure;Samples;Min_cycle;Max_cycle;Signal;HPM_P1;HPM_P2
2021/03/10 00:01:15;;;;;;;4.30;3.80;;;10.40;57.70;;;;;;2070134;28;20041;-60
2021/03/10 00:02:36;;;;;;;4.22;3.65;;;10.40;57.70;;;;;;2066599;28;20030;-60
2021/03/10 00:03:57;;;;;;;4.18;3.80;;;10.40;57.80;;;;;;2070009;28;20064;-60
2021/03/10 00:05:18;;;;;;;4.07;3.60;;;10.40;57.80;;;;;;2065081;28;20081;-60
2021/03/10 00:06:39;;;;;;;3.88;3.47;;;10.30;57.90;;;;;;2072012;28;20520;-59
2021/03/10 00:08:00;;;;;;;6.70;3.83;;;10.30;57.90;;;;;;2073602;28;20064;-60
2021/03/10 00:09:21;;;;;;;3.72;3.42;;;10.40;58.00;;;;;;2066518;28;20031;-61
2021/03/10 00:10:42;;;;;;;3.80;3.38;;;10.30;58.00;;;;;;2072441;28;20060;-59
2021/03/10 00:12:03;;;;;;;4.55;4.03;;;10.30;58.00;;;;;;2064982;28;20026;-60
2021/03/10 00:13:24;;;;;;;4.15;3.38;;;10.30;58.10;;;;;;2071851;28;20080;-60
2021/03/10 00:14:45;;;;;;;4.03;3.60;;;10.30;58.20;;;;;;2072019;28;20057;-60
2021/03/10 00:16:06;;;;;;;4.28;3.88;;;10.30;58.20;;;;;;2072007;28;20138;-61
2021/03/10 00:17:28;;;;;;;4.68;4.20;;;10.30;58.10;;;;;;2071176;28;20038;-60
2021/03/10 00:18:49;;;;;;;4.30;3.90;;;10.30;58.10;;;;;;2071937;28;20022;-61
2021/03/10 00:20:14;;;;;;;4.00;3.70;;;10.30;58.10;;;;;;2065897;28;20030;-61
2021/03/10 00:21:35;;;;;;;4.00;3.70;;;10.30;58.10;;;;;;2068628;28;20441;-59
2021/03/10 00:22:56;;;;;;;4.25;3.95;;;10.30;58.10;;;;;;2071577;28;20069;-59
2021/03/10 00:24:16;;;;;;;4.28;3.88;;;10.30;58.10;;;;;;2066807;28;20046;-60
2021/03/10 00:25:37;;;;;;;4.18;3.72;;;10.30;58.00;;;;;;2070395;28;20123;-60
2021/03/10 00:26:58;;;;;;;4.38;3.97;;;10.30;58.00;;;;;;2071980;28;20033;-60
2021/03/10 00:28:19;;;;;;;3.83;3.53;;;10.20;57.90;;;;;;2067090;28;20361;-59
2021/03/10 00:29:40;;;;;;;3.88;3.58;;;10.20;57.90;;;;;;2072382;28;20051;-60
2021/03/10 00:31:01;;;;;;;4.20;3.47;;;10.20;57.90;;;;;;2069840;28;20534;-61
2021/03/10 00:32:25;;;;;;;4.13;3.78;;;10.20;57.90;;;;;;2068309;28;20038;-58
2021/03/10 00:33:46;;;;;;;4.32;3.65;;;10.20;57.90;;;;;;2071676;28;20496;-60
2021/03/10 00:35:07;;;;;;;3.92;3.60;;;10.20;57.90;;;;;;2072366;28;20034;-59
2021/03/10 00:36:28;;;;;;;4.43;3.97;;;10.10;57.80;;;;;;2072370;28;20105;-60
2021/03/10 00:37:49;;;;;;;4.43;4.03;;;10.10;57.80;;;;;;2065914;28;20022;-60
2021/03/10 00:39:10;;;;;;;3.85;3.55;;;10.10;57.80;;;;;;2066164;28;20040;-60
2021/03/10 00:40:31;;;;;;;4.75;4.00;;;10.10;57.80;;;;;;2070837;28;20030;-61
2021/03/10 00:41:52;;;;;;;4.35;3.95;;;10.00;58.20;;;;;;2071288;28;20038;-61
2021/03/10 00:43:12;;;;;;;4.85;3.75;;;10.00;57.70;;;;;;2065913;28;20404;-59
2021/03/10 00:44:33;;;;;;;6.18;4.47;;;10.00;57.70;;;;;;2070509;28;20125;-61
2021/03/10 00:45:55;;;;;;;4.88;4.32;;;9.90;57.70;;;;;;2056988;28;20042;-59
2021/03/10 00:47:16;;;;;;;4.93;4.40;;;9.90;57.80;;;;;;2066374;28;20083;-59
2021/03/10 00:48:37;;;;;;;5.22;4.30;;;9.90;58.40;;;;;;2074315;28;20108;-61
2021/03/10 00:49:58;;;;;;;4.55;4.07;;;9.90;57.90;;;;;;2074139;28;20014;-60
2021/03/10 00:51:19;;;;;;;4.55;3.80;;;9.80;57.90;;;;;;2068532;28;20026;-60
2021/03/10 00:52:40;;;;;;;4.38;4.07;;;9.80;57.90;;;;;;2071755;28;20022;-59
2021/03/10 00:54:01;;;;;;;4.78;4.38;;;9.70;57.80;;;;;;2073778;28;20022;-60
2021/03/10 00:55:22;;;;;;;4.57;4.20;;;9.70;57.80;;;;;;2069707;28;20034;-59
2021/03/10 00:56:42;;;;;;;4.63;4.13;;;9.70;57.80;;;;;;2072269;28;20022;-61
2021/03/10 00:58:03;;;;;;;4.65;4.25;;;9.60;57.80;;;;;;2069729;28;20376;-61
2021/03/10 00:59:24;;;;;;;4.63;4.22;;;9.60;57.90;;;;;;2072650;28;20092;-59
2021/03/10 01:00:45;;;;;;;4.43;4.03;;;9.60;57.90;;;;;;2072701;28;20528;-59
2021/03/10 01:02:06;;;;;;;5.38;4.68;;;9.60;58.00;;;;;;2068141;28;20093;-59
2021/03/10 01:03:27;;;;;;;4.90;4.40;;;9.50;58.00;;;;;;2068410;28;20555;-60
2021/03/10 01:04:48;;;;;;;5.40;4.90;;;9.50;58.10;;;;;;2071715;28;20034;-59
2021/03/10 01:06:09;;;;;;;5.10;4.65;;;9.50;58.20;;;;;;2067935;28;20475;-60
2021/03/10 01:07:30;;;;;;;4.80;4.30;;;9.50;58.20;;;;;;2071227;28;20112;-61
2021/03/10 01:08:51;;;;;;;5.03;4.53;;;9.40;58.30;;;;;;2073980;28;20462;-61
2021/03/10 01:10:13;;;;;;;4.80;4.40;;;9.40;58.40;;;;;;2067556;28;20038;-60
2021/03/10 01:11:35;;;;;;;5.97;4.38;;;9.40;58.40;;;;;;2072092;28;20037;-60
2021/03/10 01:12:56;;;;;;;4.80;4.40;;;9.40;58.50;;;;;;2073159;28;20034;-60
2021/03/10 01:14:16;;;;;;;5.15;4.70;;;9.40;58.60;;;;;;2069241;28;20811;-60
2021/03/10 01:15:37;;;;;;;5.82;5.28;;;9.40;58.80;;;;;;2071811;28;20040;-60
2021/03/10 01:16:58;;;;;;;6.07;5.05;;;9.40;58.90;;;;;;2072752;28;20061;-60
2021/03/10 01:18:19;;;;;;;5.97;5.05;;;9.40;59.00;;;;;;2068266;28;20061;-60
2021/03/10 01:19:40;;;;;;;4.97;4.57;;;9.40;59.10;;;;;;2071215;28;20045;-61
2021/03/10 01:21:01;;;;;;;5.32;4.63;;;9.40;59.10;;;;;;2072311;28;20030;-60
2021/03/10 01:22:22;;;;;;;6.60;4.97;;;9.40;59.20;;;;;;2068603;28;20069;-60
2021/03/10 01:23:43;;;;;;;5.30;4.80;;;9.40;59.20;;;;;;2072214;28;20029;-61
2021/03/10 01:25:05;;;;;;;6.00;5.28;;;9.40;59.30;;;;;;2071720;28;20042;-59
2021/03/10 01:26:26;;;;;;;5.18;4.68;;;9.40;59.30;;;;;;2071529;28;20034;-60
2021/03/10 01:27:47;;;;;;;5.18;4.68;;;9.50;59.50;;;;;;2067810;28;20085;-59
2021/03/10 01:29:08;;;;;;;6.07;4.88;;;9.40;59.50;;;;;;2066211;28;20058;-60
2021/03/10 01:30:29;;;;;;;5.65;4.78;;;9.40;59.50;;;;;;2072936;28;20354;-60
2021/03/10 01:31:50;;;;;;;5.88;4.75;;;9.50;59.50;;;;;;2074071;28;20032;-60
2021/03/10 01:33:11;;;;;;;4.90;4.50;;;9.50;59.50;;;;;;2072160;28;20045;-59
2021/03/10 01:34:31;;;;;;;5.40;5.00;;;9.50;59.60;;;;;;2071782;28;20029;-60
2021/03/10 01:35:52;;;;;;;5.50;4.97;;;9.50;59.60;;;;;;2071526;28;20101;-59
2021/03/10 01:37:14;;;;;;;6.53;5.40;;;9.50;59.70;;;;;;2066925;28;20062;-59
2021/03/10 01:38:35;;;;;;;5.57;5.05;;;9.50;59.70;;;;;;2070390;28;20037;-62
2021/03/10 01:39:56;;;;;;;5.72;5.20;;;9.50;59.60;;;;;;2073006;28;20042;-60
2021/03/10 01:41:17;;;;;;;5.22;4.80;;;9.50;59.60;;;;;;2067515;28;20038;-59
2021/03/10 01:42:38;;;;;;;5.38;4.80;;;9.50;59.60;;;;;;2067513;28;20026;-60
2021/03/10 01:43:59;;;;;;;4.95;4.55;;;9.50;59.70;;;;;;2069003;28;20371;-60
2021/03/10 01:45:19;;;;;;;5.97;5.38;;;9.60;59.80;;;;;;2068080;28;20045;-60
2021/03/10 01:46:41;;;;;;;5.40;4.90;;;9.60;59.60;;;;;;2072376;28;20044;-60
2021/03/10 01:48:05;;;;;;;5.47;4.97;;;9.60;59.60;;;;;;2059652;28;20038;-59
2021/03/10 01:49:28;;;;;;;5.60;5.10;;;9.60;59.80;;;;;;2066973;28;20068;-61
2021/03/10 01:50:49;;;;;;;5.35;4.95;;;9.60;59.80;;;;;;2064219;28;20030;-59
2021/03/10 01:52:10;;;;;;;5.97;5.38;;;9.60;59.60;;;;;;2068090;28;20038;-61
2021/03/10 01:53:33;;;;;;;6.15;5.50;;;9.60;59.60;;;;;;2070207;28;20021;-61
2021/03/10 01:54:54;;;;;;;5.63;5.05;;;9.60;59.50;;;;;;2073115;28;20369;-60
2021/03/10 01:56:16;;;;;;;5.65;5.05;;;9.60;59.40;;;;;;2067424;28;20097;-60
2021/03/10 01:57:37;;;;;;;5.72;5.13;;;9.70;59.50;;;;;;2069799;28;20606;-59
2021/03/10 01:58:58;;;;;;;6.03;5.43;;;9.60;59.40;;;;;;2072775;28;20088;-59
2021/03/10 02:00:19;;;;;;;6.28;5.50;;;9.60;59.40;;;;;;2068332;28;20589;-61
2021/03/10 02:01:40;;;;;;;5.60;5.10;;;9.60;59.40;;;;;;2069073;28;20453;-60
2021/03/10 02:03:02;;;;;;;5.95;5.35;;;9.60;59.40;;;;;;2071961;28;20075;-60
2021/03/10 02:04:23;;;;;;;5.75;5.25;;;9.60;59.50;;;;;;2069589;28;20073;-59
2021/03/10 02:05:44;;;;;;;5.97;5.28;;;9.70;59.60;;;;;;2072027;28;20029;-59
2021/03/10 02:07:23;;;;;;;5.80;5.30;;;9.70;59.60;;;;;;2065757;28;20382;-60
2021/03/10 02:08:53;;;;;;;5.65;5.15;;;9.70;59.70;;;;;;2072176;28;20461;-59
2021/03/10 02:10:28;;;;;;;9.38;5.38;;;9.70;59.60;;;;;;2068001;28;20031;-60
2021/03/10 02:11:57;;;;;;;6.10;5.50;;;9.70;59.70;;;;;;2058310;28;20026;-59
2021/03/10 02:13:38;;;;;;;6.03;5.43;;;9.70;59.60;;;;;;2067161;28;20037;-60
2021/03/10 02:15:08;;;;;;;7.25;5.97;;;9.70;59.60;;;;;;2073037;28;20030;-59
2021/03/10 02:16:48;;;;;;;6.93;5.90;;;9.70;59.50;;;;;;2073048;28;20389;-60
2021/03/10 02:18:14;;;;;;;6.78;5.97;;;9.70;59.70;;;;;;2072897;28;20068;-59
2021/03/10 02:20:10;;;;;;;6.75;6.15;;;9.70;59.50;;;;;;2072033;28;20065;-61
2021/03/10 02:22:22;;;;;;;8.10;6.05;;;9.70;59.60;;;;;;2070818;28;20350;-59
2021/03/10 02:23:43;;;;;;;6.47;5.78;;;9.70;59.60;;;;;;2071152;28;20109;-60
2021/03/10 02:25:14;;;;;;;6.60;5.93;;;9.70;59.20;;;;;;2072675;28;20060;-60
2021/03/10 02:27:00;;;;;;;8.25;6.35;;;9.70;59.40;;;;;;2072636;28;20040;-60
2021/03/10 02:28:21;;;;;;;7.22;6.40;;;9.70;59.50;;;;;;2068074;28;20027;-60
2021/03/10 02:29:44;;;;;;;7.47;6.72;;;9.70;59.20;;;;;;2073022;28;20544;-59
2021/03/10 02:31:07;;;;;;;7.70;6.90;;;9.70;59.40;;;;;;2070898;28;20061;-60
2021/03/10 02:32:29;;;;;;;8.07;6.85;;;9.70;59.40;;;;;;2069769;28;20022;-60
2021/03/10 02:33:52;;;;;;;9.93;7.43;;;9.60;59.40;;;;;;2065108;28;20050;-61
2021/03/10 02:35:13;;;;;;;8.07;6.55;;;9.70;59.50;;;;;;2071258;28;20296;-60
2021/03/10 02:36:36;;;;;;;7.78;6.80;;;9.60;59.50;;;;;;2071914;28;20678;-59
2021/03/10 02:38:01;;;;;;;7.28;6.57;;;9.60;59.50;;;;;;2069669;28;20046;-60
2021/03/10 02:39:23;;;;;;;7.97;6.93;;;9.60;59.60;;;;;;2069759;28;20125;-59
2021/03/10 02:40:46;;;;;;;8.02;6.97;;;9.60;60.10;;;;;;2064868;28;20033;-59
2021/03/10 02:42:07;;;;;;;7.75;7.00;;;9.60;59.60;;;;;;2070219;28;20080;-59
2021/03/10 02:43:29;;;;;;;8.73;7.22;;;9.60;59.60;;;;;;2073321;28;20084;-60
2021/03/10 02:44:50;;;;;;;7.57;6.85;;;9.60;59.60;;;;;;2072589;28;20481;-60
2021/03/10 02:46:13;;;;;;;7.95;6.93;;;9.60;59.60;;;;;;2072814;28;20061;-60
2021/03/10 02:47:35;;;;;;;8.88;7.03;;;9.60;59.60;;;;;;2068278;28;20053;-60
2021/03/10 02:48:58;;;;;;;7.80;7.00;;;9.60;59.60;;;;;;2070078;28;20120;-60
2021/03/10 02:50:19;;;;;;;8.63;7.65;;;9.60;59.70;;;;;;2067538;28;20369;-60
2021/03/10 02:51:43;;;;;;;7.82;7.00;;;9.60;59.70;;;;;;2069384;28;20168;-60
2021/03/10 02:53:05;;;;;;;7.95;7.13;;;9.50;59.70;;;;;;2065472;28;20475;-59
2021/03/10 02:54:27;;;;;;;8.60;7.65;;;9.50;59.70;;;;;;2071743;28;20060;-59
2021/03/10 02:55:49;;;;;;;9.50;7.68;;;9.50;59.70;;;;;;2073230;28;20034;-60
2021/03/10 02:57:10;;;;;;;8.10;7.28;;;9.50;59.70;;;;;;2066743;28;20027;-60
2021/03/10 02:58:31;;;;;;;7.80;7.00;;;9.50;59.70;;;;;;2068348;28;20061;-60
2021/03/10 02:59:53;;;;;;;9.18;7.75;;;9.50;59.70;;;;;;2069270;28;20184;-60
2021/03/10 03:01:15;;;;;;;9.75;7.43;;;9.50;59.70;;;;;;2071666;28;20537;-60
2021/03/10 03:02:37;;;;;;;8.90;7.80;;;9.40;59.60;;;;;;2071617;28;20548;-59
2021/03/10 03:03:58;;;;;;;9.05;7.75;;;9.50;59.70;;;;;;2071653;28;20128;-60
2021/03/10 03:05:19;;;;;;;8.27;7.32;;;9.40;59.70;;;;;;2069461;28;20038;-59
2021/03/10 03:06:40;;;;;;;9.80;8.25;;;9.40;59.70;;;;;;2068902;28;20046;-59
2021/03/10 03:08:02;;;;;;;9.05;8.15;;;9.40;59.70;;;;;;2066965;28;20469;-60
2021/03/10 03:09:24;;;;;;;9.07;7.75;;;9.40;59.80;;;;;;2066959;28;20038;-60
2021/03/10 03:10:45;;;;;;;9.30;8.32;;;9.30;59.80;;;;;;2071250;28;20227;-59
2021/03/10 03:12:07;;;;;;;8.65;7.78;;;9.30;59.80;;;;;;2070521;28;20121;-60
2021/03/10 03:13:29;;;;;;;10.15;7.88;;;9.30;59.80;;;;;;2070088;28;20030;-61
2021/03/10 03:14:50;;;;;;;8.52;7.55;;;9.30;59.80;;;;;;2072506;28;20659;-60
2021/03/10 03:16:12;;;;;;;12.45;8.73;;;9.30;60.50;;;;;;2071064;28;20041;-60
2021/03/10 03:17:34;;;;;;;10.10;8.32;;;9.30;59.90;;;;;;2068125;28;20018;-60
2021/03/10 03:18:55;;;;;;;9.80;8.52;;;9.30;59.90;;;;;;2072265;28;20030;-60
2021/03/10 03:20:18;;;;;;;9.80;8.15;;;9.30;59.90;;;;;;2071443;28;20069;-60
2021/03/10 03:21:41;;;;;;;9.73;8.73;;;9.20;59.90;;;;;;2066186;28;20029;-59
2021/03/10 03:23:06;;;;;;;10.25;8.05;;;9.20;60.00;;;;;;2064862;28;20034;-59
2021/03/10 03:24:28;;;;;;;9.10;7.80;;;9.20;59.90;;;;;;2067663;28;20103;-59
2021/03/10 03:25:51;;;;;;;10.45;8.65;;;9.20;59.90;;;;;;2066130;28;20497;-60
2021/03/10 03:27:24;;;;;;;10.00;8.43;;;9.10;60.00;;;;;;2065233;28;20208;-59
2021/03/10 03:28:46;;;;;;;9.13;8.23;;;9.10;60.00;;;;;;2073034;28;20080;-59
2021/03/10 03:30:09;;;;;;;10.30;8.25;;;9.20;60.10;;;;;;2065835;28;20061;-60
2021/03/10 03:31:33;;;;;;;10.27;9.15;;;9.10;60.10;;;;;;2071799;28;20026;-59
2021/03/10 03:32:55;;;;;;;10.25;8.77;;;9.10;60.80;;;;;;2065384;28;20090;-59
2021/03/10 03:34:16;;;;;;;9.73;8.80;;;9.10;60.20;;;;;;2066408;28;20064;-59
2021/03/10 03:35:38;;;;;;;10.27;8.85;;;9.10;60.30;;;;;;2069821;28;20101;-59
2021/03/10 03:36:59;;;;;;;9.50;8.50;;;9.10;60.30;;;;;;2066625;28;20022;-60
2021/03/10 03:38:25;;;;;;;9.95;8.43;;;9.10;60.40;;;;;;2071872;28;20097;-60
2021/03/10 03:39:49;;;;;;;11.65;8.65;;;9.00;60.50;;;;;;2071427;28;20034;-59
2021/03/10 03:41:11;;;;;;;10.55;9.05;;;9.00;60.50;;;;;;2066348;28;20038;-60
2021/03/10 03:42:32;;;;;;;10.13;9.10;;;9.00;60.60;;;;;;2072079;28;20381;-59
2021/03/10 03:43:54;;;;;;;12.05;8.65;;;9.00;60.60;;;;;;2071735;28;20037;-60
2021/03/10 03:45:16;;;;;;;11.85;9.20;;;9.00;60.80;;;;;;2065852;28;20596;-59
2021/03/10 03:46:37;;;;;;;11.38;9.70;;;9.00;60.90;;;;;;2069810;28;20034;-59
2021/03/10 03:47:58;;;;;;;10.85;8.93;;;9.00;61.00;;;;;;2066324;28;20393;-59
2021/03/10 03:49:19;;;;;;;12.20;9.27;;;9.00;61.10;;;;;;2066762;28;20034;-59
2021/03/10 03:50:41;;;;;;;12.05;9.63;;;9.00;61.20;;;;;;2065281;28;20034;-60
2021/03/10 03:52:02;;;;;;;11.50;9.68;;;9.00;61.40;;;;;;2071241;28;20029;-60
2021/03/10 03:53:23;;;;;;;10.02;9.02;;;9.00;61.30;;;;;;2067724;28;20030;-60
2021/03/10 03:54:44;;;;;;;11.50;9.50;;;9.00;61.40;;;;;;2070007;28;20339;-60
2021/03/10 03:56:05;;;;;;;11.52;9.38;;;9.00;61.20;;;;;;2071350;28;20033;-60
2021/03/10 03:57:26;;;;;;;11.70;9.65;;;9.00;61.30;;;;;;2070151;28;20037;-59
2021/03/10 03:58:47;;;;;;;11.02;9.13;;;9.00;61.40;;;;;;2071388;28;20041;-60
2021/03/10 04:00:15;;;;;;;11.55;9.65;;;9.10;61.40;;;;;;2065820;28;20038;-60
2021/03/10 04:01:36;;;;;;;11.90;9.73;;;9.00;61.40;;;;;;2070798;28;20129;-60
2021/03/10 04:02:56;;;;;;;10.40;9.30;;;9.10;61.40;;;;;;2072278;28;20037;-60
2021/03/10 04:04:17;;;;;;;11.07;9.43;;;9.10;61.50;;;;;;2065809;28;20153;-59
2021/03/10 04:05:38;;;;;;;12.43;9.70;;;9.10;61.50;;;;;;2070405;28;20344;-60
2021/03/10 04:07:00;;;;;;;11.68;9.68;;;9.10;61.60;;;;;;2071554;28;20029;-59
2021/03/10 04:08:21;;;;;;;12.35;9.95;;;9.10;61.60;;;;;;2067863;28;20037;-59
2021/03/10 04:09:42;;;;;;;11.02;9.23;;;9.10;61.70;;;;;;2066618;28;20030;-60
2021/03/10 04:11:03;;;;;;;11.98;9.95;;;9.10;61.70;;;;;;2069351;28;20041;-60
2021/03/10 04:12:24;;;;;;;13.82;10.15;;;9.20;61.70;;;;;;2071662;28;20033;-60
2021/03/10 04:13:45;;;;;;;11.60;9.63;;;9.20;62.40;;;;;;2070286;28;20030;-60
2021/03/10 04:15:07;;;;;;;11.82;10.20;;;9.10;61.60;;;;;;2069568;28;20457;-59
2021/03/10 04:16:28;;;;;;;12.07;9.95;;;9.20;61.60;;;;;;2071193;28;20082;-60
2021/03/10 04:17:49;;;;;;;14.27;10.57;;;9.20;61.60;;;;;;2069199;28;20499;-60
2021/03/10 04:19:10;;;;;;;13.52;10.70;;;9.20;61.60;;;;;;2069998;28;20049;-59
2021/03/10 04:20:31;;;;;;;12.50;10.88;;;9.20;61.70;;;;;;2067335;28;20120;-60
2021/03/10 04:21:52;;;;;;;12.45;10.00;;;9.20;61.60;;;;;;2071666;28;20033;-60
2021/03/10 04:23:14;;;;;;;17.40;11.52;;;9.20;61.60;;;;;;2069738;28;20030;-60
2021/03/10 04:24:35;;;;;;;13.68;10.55;;;9.20;62.40;;;;;;2073610;28;20544;-59
2021/03/10 04:25:55;;;;;;;13.05;10.70;;;9.30;61.80;;;;;;2073754;28;20120;-60
2021/03/10 04:27:17;;;;;;;12.68;11.00;;;9.20;61.70;;;;;;2069277;28;20570;-59
2021/03/10 04:28:38;;;;;;;14.57;10.52;;;9.30;61.70;;;;;;2067363;28;20039;-60
2021/03/10 04:29:59;;;;;;;12.93;10.70;;;9.20;61.60;;;;;;2073631;28;20041;-60
2021/03/10 04:31:20;;;;;;;14.60;11.00;;;9.20;61.60;;;;;;2070142;28;20065;-60
2021/03/10 04:32:41;;;;;;;13.88;11.32;;;9.30;61.70;;;;;;2073630;28;20057;-59
2021/03/10 04:34:02;;;;;;;13.32;10.23;;;9.30;61.70;;;;;;2073318;28;20030;-59
2021/03/10 04:35:23;;;;;;;12.85;11.32;;;9.30;61.60;;;;;;2069534;28;20078;-60
2021/03/10 04:36:44;;;;;;;14.02;11.48;;;9.30;61.60;;;;;;2074895;28;20080;-60
2021/03/10 04:38:05;;;;;;;14.15;11.55;;;9.30;61.60;;;;;;2059635;28;20046;-59
2021/03/10 04:39:26;;;;;;;14.07;10.95;;;9.30;61.70;;;;;;2070680;28;20030;-59
2021/03/10 04:40:47;;;;;;;14.88;11.93;;;9.30;61.70;;;;;;2073002;28;20128;-60
2021/03/10 04:42:08;;;;;;;14.30;11.57;;;9.30;61.70;;;;;;2071055;28;20026;-60
2021/03/10 04:43:29;;;;;;;12.48;10.93;;;9.30;61.80;;;;;;2071374;28;20053;-61
2021/03/10 04:44:50;;;;;;;14.60;11.50;;;9.30;61.80;;;;;;2071735;28;20036;-59
2021/03/10 04:46:11;;;;;;;13.07;10.77;;;9.30;61.80;;;;;;2066318;28;20081;-59
2021/03/10 04:47:32;;;;;;;16.25;12.30;;;9.30;61.80;;;;;;2069840;28;20733;-61
2021/03/10 04:48:53;;;;;;;15.10;12.10;;;9.30;61.80;;;;;;2072851;28;20040;-59
2021/03/10 04:50:15;;;;;;;14.60;11.80;;;9.40;61.80;;;;;;2068920;28;20034;-60
2021/03/10 04:51:36;;;;;;;16.73;12.30;;;9.30;61.70;;;;;;2071161;28;20025;-60
2021/03/10 04:52:57;;;;;;;15.38;12.55;;;9.30;61.60;;;;;;2073717;28;20109;-60
2021/03/10 04:54:18;;;;;;;14.25;11.80;;;9.30;61.60;;;;;;2067988;28;20654;-60
2021/03/10 04:55:39;;;;;;;13.82;11.27;;;9.40;61.70;;;;;;2070430;28;20038;-60
2021/03/10 04:57:00;;;;;;;13.40;11.18;;;9.40;61.70;;;;;;2074815;28;20411;-61
2021/03/10 04:58:21;;;;;;;15.30;11.98;;;9.40;61.70;;;;;;2074699;28;20748;-60
2021/03/10 04:59:42;;;;;;;14.90;11.68;;;9.40;61.70;;;;;;2071465;28;20030;-59
2021/03/10 05:01:03;;;;;;;12.38;10.63;;;9.40;61.70;;;;;;2072600;28;20041;-60
2021/03/10 05:02:24;;;;;;;14.65;11.15;;;9.40;61.70;;;;;;2071392;28;20029;-59
2021/03/10 05:03:45;;;;;;;15.07;12.15;;;9.40;61.70;;;;;;2074727;28;20022;-59
2021/03/10 05:05:08;;;;;;;15.30;11.90;;;9.40;61.70;;;;;;2073378;28;20095;-59
2021/03/10 05:06:28;;;;;;;15.52;12.25;;;9.40;61.80;;;;;;2069937;28;20128;-60
2021/03/10 05:07:49;;;;;;;16.95;12.27;;;9.40;61.70;;;;;;2068301;28;20049;-59
2021/03/10 05:09:10;;;;;;;16.67;12.05;;;9.40;61.70;;;;;;2066642;28;20088;-60
2021/03/10 05:10:31;;;;;;;16.92;12.40;;;9.40;61.80;;;;;;2073506;28;20057;-60
2021/03/10 05:11:52;;;;;;;17.05;13.02;;;9.40;61.80;;;;;;2070072;28;20061;-60
2021/03/10 05:13:13;;;;;;;19.27;13.07;;;9.40;61.80;;;;;;2068348;28;20528;-61
2021/03/10 05:14:34;;;;;;;15.20;12.23;;;9.50;61.80;;;;;;2069548;28;20026;-59
2021/03/10 05:15:55;;;;;;;17.90;13.55;;;9.40;61.70;;;;;;2072016;28;20034;-59
2021/03/10 05:17:16;;;;;;;18.85;14.38;;;9.40;61.70;;;;;;2066963;28;20039;-60
2021/03/10 05:18:37;;;;;;;18.58;13.32;;;9.40;61.70;;;;;;2070105;28;20046;-60
2021/03/10 05:19:58;;;;;;;17.20;12.95;;;9.40;61.80;;;;;;2071931;28;20488;-60
2021/03/10 05:21:19;;;;;;;18.65;14.18;;;9.40;61.80;;;;;;2067515;28;20050;-59
2021/03/10 05:22:40;;;;;;;18.75;14.00;;;9.40;61.80;;;;;;2072648;28;20376;-59
2021/03/10 05:24:01;;;;;;;21.08;14.52;;;9.40;61.80;;;;;;2064757;28;20499;-60
2021/03/10 05:25:22;;;;;;;19.02;13.88;;;9.50;61.80;;;;;;2067633;28;20038;-59
2021/03/10 05:26:43;;;;;;;18.35;13.73;;;9.50;61.90;;;;;;2071122;28;20369;-60
2021/03/10 05:28:04;;;;;;;18.30;13.52;;;9.50;62.00;;;;;;2069771;28;20037;-60
2021/03/10 05:29:25;;;;;;;17.92;14.18;;;9.50;61.90;;;;;;2071397;28;20109;-60
2021/03/10 05:30:46;;;;;;;18.50;14.38;;;9.50;61.90;;;;;;2071880;28;20034;-59
2021/03/10 05:32:07;;;;;;;20.45;15.00;;;9.50;62.00;;;;;;2070086;28;20184;-59
2021/03/10 05:33:28;;;;;;;24.30;15.95;;;9.40;62.00;;;;;;2069436;28;20026;-60
2021/03/10 05:34:49;;;;;;;20.45;15.52;;;9.40;62.00;;;;;;2069116;28;20033;-61
2021/03/10 05:36:10;;;;;;;20.55;15.32;;;9.40;62.00;;;;;;2065881;28;20041;-60
2021/03/10 05:37:31;;;;;;;21.13;14.85;;;9.40;62.00;;;;;;2067231;28;20049;-59
2021/03/10 05:38:52;;;;;;;18.92;14.30;;;9.40;62.00;;;;;;2070477;28;20131;-59
2021/03/10 05:40:15;;;;;;;18.02;14.25;;;9.40;62.00;;;;;;2066993;28;20029;-59
2021/03/10 05:41:35;;;;;;;20.67;14.65;;;9.40;62.00;;;;;;2069759;28;20029;-59
2021/03/10 05:42:57;;;;;;;20.25;14.30;;;9.40;62.00;;;;;;2071588;28;20523;-59
2021/03/10 05:44:18;;;;;;;19.05;14.38;;;9.40;62.00;;;;;;2068477;28;20040;-59
2021/03/10 05:45:40;;;;;;;20.92;15.05;;;9.40;62.10;;;;;;2071155;28;20029;-59
2021/03/10 05:47:01;;;;;;;19.98;14.60;;;9.40;62.30;;;;;;2071883;28;20037;-60
2021/03/10 05:48:22;;;;;;;22.38;16.08;;;9.40;62.30;;;;;;2071630;28;20529;-59
2021/03/10 05:49:44;;;;;;;21.65;15.48;;;9.40;62.40;;;;;;2070802;28;20030;-59
2021/03/10 05:51:06;;;;;;;23.02;16.52;;;9.40;62.40;;;;;;2069607;28;20044;-60
2021/03/10 05:52:29;;;;;;;20.13;15.30;;;9.40;62.40;;;;;;2061487;28;20031;-60
2021/03/10 05:53:51;;;;;;;25.50;17.27;;;9.40;62.40;;;;;;2067400;28;20060;-59
2021/03/10 05:55:14;;;;;;;22.42;15.77;;;9.40;62.40;;;;;;2066914;28;20065;-59
2021/03/10 05:56:35;;;;;;;21.50;14.93;;;9.40;62.40;;;;;;2071746;28;20033;-60
2021/03/10 05:57:56;;;;;;;21.33;15.60;;;9.50;62.60;;;;;;2071098;28;20049;-60
2021/03/10 05:59:16;;;;;;;20.98;15.88;;;9.40;62.60;;;;;;2069191;28;20122;-61
2021/03/10 06:00:45;;;;;;;21.05;15.15;;;9.50;62.80;;;;;;2073336;28;20030;-59
2021/03/10 06:02:06;;;;;;;23.13;15.68;;;9.50;62.90;;;;;;2069580;28;20487;-59
2021/03/10 06:03:27;;;;;;;22.33;16.48;;;9.50;62.70;;;;;;2070051;28;20084;-59
2021/03/10 06:04:48;;;;;;;21.58;15.30;;;9.50;62.70;;;;;;2068582;28;20044;-59
2021/03/10 06:06:09;;;;;;;21.65;16.08;;;9.50;62.70;;;;;;2065321;28;20030;-59
2021/03/10 06:07:30;;;;;;;25.67;16.05;;;9.50;62.70;;;;;;2066622;28;20026;-59
2021/03/10 06:08:51;;;;;;;24.00;16.40;;;9.50;62.70;;;;;;2071751;28;20034;-60
2021/03/10 06:10:14;;;;;;;22.38;16.02;;;9.50;62.70;;;;;;2066149;28;20096;-59
2021/03/10 06:11:35;;;;;;;26.70;17.65;;;9.50;62.70;;;;;;2071456;28;20022;-60
2021/03/10 06:12:55;;;;;;;23.48;16.10;;;9.50;62.70;;;;;;2045376;28;547138;-59
2021/03/10 06:14:16;;;;;;;25.00;17.25;;;9.50;62.70;;;;;;2064148;28;20037;-60
2021/03/10 06:15:40;;;;;;;23.35;17.23;;;9.60;62.80;;;;;;2071941;28;20026;-60
2021/03/10 06:17:07;;;;;;;25.48;17.33;;;9.60;62.90;;;;;;2073092;28;20029;-60
2021/03/10 06:18:29;;;;;;;23.70;16.65;;;9.50;62.90;;;;;;2072429;28;20105;-60
2021/03/10 06:19:51;;;;;;;25.65;17.33;;;9.60;62.90;;;;;;2071920;28;20457;-60
2021/03/10 06:21:17;;;;;;;23.13;16.40;;;9.60;62.90;;;;;;2070754;28;20483;-59
2021/03/10 06:22:38;;;;;;;23.05;17.25;;;9.60;62.80;;;;;;2070562;28;20034;-60
2021/03/10 06:24:02;;;;;;;24.35;17.40;;;9.60;62.80;;;;;;2072349;28;20123;-60
2021/03/10 06:25:24;;;;;;;28.88;18.67;;;9.60;62.80;;;;;;2069032;28;20023;-59
2021/03/10 06:26:54;;;;;;;27.15;18.75;;;9.60;62.80;;;;;;2072250;28;20033;-60
2021/03/10 06:28:15;;;;;;;30.95;18.85;;;9.60;62.90;;;;;;2069882;28;20056;-59
2021/03/10 06:29:36;;;;;;;27.45;18.55;;;9.60;62.80;;;;;;2064375;28;20073;-60
2021/03/10 06:30:57;;;;;;;26.90;18.02;;;9.60;62.70;;;;;;2062537;28;20097;-59
2021/03/10 06:32:22;;;;;;;28.27;19.48;;;9.60;62.70;;;;;;2066123;28;20037;-59
2021/03/10 06:33:43;;;;;;;29.48;19.65;;;9.60;62.90;;;;;;2072562;28;20022;-60
2021/03/10 06:35:04;;;;;;;30.88;19.70;;;9.60;62.80;;;;;;2073065;28;20030;-60
2021/03/10 06:36:27;;;;;;;30.38;20.63;;;9.60;62.90;;;;;;2073039;28;20084;-60
2021/03/10 06:37:50;;;;;;;25.40;18.40;;;9.60;63.10;;;;;;2071644;28;20113;-60
2021/03/10 06:39:21;;;;;;;32.25;20.08;;;9.60;63.00;;;;;;2059510;28;20043;-60
2021/03/10 06:40:48;;;;;;;27.45;19.30;;;9.60;63.10;;;;;;2071831;28;20026;-62
2021/03/10 06:42:13;;;;;;;30.40;20.05;;;9.70;63.20;;;;;;2067426;28;20042;-60
2021/03/10 06:43:41;;;;;;;27.33;19.45;;;9.70;63.10;;;;;;2072819;28;20030;-61
2021/03/10 06:45:04;;;;;;;32.13;20.30;;;9.70;63.20;;;;;;2071989;28;20037;-61
2021/03/10 06:46:25;;;;;;;30.08;19.60;;;9.70;63.10;;;;;;2067041;28;20026;-61
2021/03/10 06:47:46;;;;;;;31.98;20.65;;;9.70;63.00;;;;;;2066789;28;20065;-59
2021/03/10 06:49:06;;;;;;;31.33;21.05;;;9.70;63.10;;;;;;2065505;28;20118;-59
2021/03/10 06:50:37;;;;;;;35.20;22.23;;;9.70;63.20;;;;;;2071060;28;20116;-59
2021/03/10 06:51:59;;;;;;;30.83;20.88;;;9.70;63.40;;;;;;2072696;28;20036;-61
2021/03/10 06:53:31;;;;;;;30.25;21.42;;;9.70;63.20;;;;;;2068196;28;20136;-60
2021/03/10 06:55:00;;;;;;;31.60;20.90;;;9.70;63.50;;;;;;2070600;28;20061;-60
2021/03/10 06:56:29;;;;;;;30.10;20.00;;;9.70;64.10;;;;;;2066802;28;20034;-60
2021/03/10 06:57:51;;;;;;;30.33;21.30;;;9.70;63.30;;;;;;2058533;28;20058;-61
2021/03/10 06:59:12;;;;;;;31.33;21.42;;;9.70;63.20;;;;;;2064170;28;20976;-60
2021/03/10 07:00:34;;;;;;;31.48;21.27;;;9.70;63.20;;;;;;2069340;28;20469;-59
2021/03/10 07:01:55;;;;;;;35.03;20.95;;;9.80;64.00;;;;;;2071345;28;20443;-60
2021/03/10 07:03:16;;;;;;;33.83;20.50;;;9.80;63.30;;;;;;2067109;28;20150;-60
2021/03/10 07:04:39;;;;;;;32.97;22.55;;;9.80;63.30;;;;;;2070291;28;20046;-60
2021/03/10 07:06:03;;;;;;;30.80;21.92;;;9.80;63.30;;;;;;2070995;28;20053;-60
2021/03/10 07:07:25;;;;;;;35.05;22.45;;;9.80;63.40;;;;;;2058831;28;20027;-60
2021/03/10 07:08:48;;;;;;;35.03;23.40;;;9.80;63.40;;;;;;2069609;28;20022;-60